Olustee, FL

1:53 AM EST on November 26, 2014 (GMT -0500)
RAWS OLUSTEE FL US | Change Station
CLOSE
Current Station
Personal Weather Station
Location: Sanderson, FL
Elevation: 174 ft
Nearby Weather Stations

Elev 174 ft 30.25 °N, 82.42 °W | Updated 49 minutes ago

Overcast
Overcast
55 °F
Feels Like 55 °F
N
6
Wind Variable Wind from NNW
Gusts 13.0 mph

Today
High -- | Low -- °F
--% Chance of Precip.
Yesterday
High -- | Low -- °F
Precip. -- in
7:04 AM 5:29 PM
Waxing Crescent, 17% visible
Pressure 29.87 in
Visibility 1.0 miles
Clouds Overcast 300 ft
Dew Point 55 °F
Humidity 100%
Rainfall 0.96 in
Snow Depth Not available.
UV 0 out of 12
Pollen .40 out of 12
Air Quality Not available.
Flu Activity Not available.
METAR KVQQ 260635Z AUTO 30008KT 1SM -RA OVC003 14/14 A2987 RMK AO2

More Conditions Fewer Conditions

Pressure 29.87 in
Visibility 1.0 miles
Clouds Overcast 300 ft
Dew Point 55 °F
Humidity 100%
Rainfall 0.96 in
Snow Depth Not available.
UV 0 out of 12
Pollen .40 out of 12
Air Quality Not available.
Flu Activity Not available.
METAR KVQQ 260635Z AUTO 30008KT 1SM -RA OVC003 14/14 A2987 RMK AO2

More Conditions Fewer Conditions

10-Day Weather Forecast

Almanac

Astronomy

Nov. 26, 2014 Rise Set
Actual Time
Civil Twilight
Nautical Twilight
Astronomical Twilight
Moon
Length of Visible Light
Length of Day
Tomorrow will be .
, % of the Moon is Illuminated

Today's Extremes

State Highs State Lows

Community

WunderPhotos

Upload Photos

1,773,691 photos uploaded!

WunderBlogs® & News

Nearby

Air Quality

  Air Quality AQ Index Pollutant
Not available.

Snow Depth

Station Depth Elevation

Earthquake Activity

City Distance Mag. Time & Date
Minimum magnitude displayed is 2.5.

Coastal Water Temperatures

Place Temperature

Nearby Weather Stations